createdAt,value
2018-05-12T00:01:33.800Z,101278.83
2018-05-12T00:04:04.328Z,101274.48
2018-05-12T00:06:33.728Z,101280.09
2018-05-12T00:09:03.697Z,101275.27
2018-05-12T00:11:34.341Z,101270.09
2018-05-12T00:14:02.896Z,101273.49
2018-05-12T00:16:32.654Z,101274.33
2018-05-12T00:19:01.150Z,101264.74
2018-05-12T00:21:29.564Z,101258.28
2018-05-12T00:23:58.676Z,101261.23
2018-05-12T00:26:27.783Z,101258.61
2018-05-12T00:28:57.040Z,101255.15
2018-05-12T00:31:27.225Z,101259.98
2018-05-12T00:33:55.705Z,101259.62
2018-05-12T00:36:24.082Z,101255.81
2018-05-12T00:38:52.413Z,101255.38
2018-05-12T00:41:21.556Z,101256.23
2018-05-12T00:43:49.897Z,101256.53
2018-05-12T00:46:19.002Z,101254.29
2018-05-12T00:48:48.129Z,101251.17
2018-05-12T00:51:16.508Z,101255.52
2018-05-12T00:53:46.714Z,101253.00
2018-05-12T00:56:15.127Z,101259.07
2018-05-12T00:58:44.238Z,101258.68
2018-05-12T01:01:12.872Z,101257.84
2018-05-12T01:03:42.021Z,101258.84
2018-05-12T01:06:10.449Z,101254.45
2018-05-12T01:08:38.810Z,101256.23
2018-05-12T01:11:07.933Z,101251.92
2018-05-12T01:13:37.170Z,101250.27
2018-05-12T01:16:05.679Z,101248.16
2018-05-12T01:18:35.756Z,101244.76
2018-05-12T01:21:04.338Z,101246.08
2018-05-12T01:23:33.828Z,101246.51
2018-05-12T01:26:02.175Z,101244.34
2018-05-12T01:28:32.003Z,101239.52
2018-05-12T01:31:00.370Z,101237.36
2018-05-12T01:33:30.771Z,101244.70
2018-05-12T01:35:59.891Z,101243.46
2018-05-12T01:38:29.673Z,101244.35
2018-05-12T01:40:58.081Z,101241.31
2018-05-12T01:43:27.205Z,101242.98
2018-05-12T01:45:55.545Z,101244.29
2018-05-12T01:48:24.664Z,101250.34
2018-05-12T01:50:53.036Z,101244.72
2018-05-12T01:53:21.430Z,101244.76
2018-05-12T01:55:49.889Z,101244.35
2018-05-12T01:58:19.164Z,101236.19
2018-05-12T02:00:47.490Z,101237.51
2018-05-12T02:03:16.678Z,101239.23
2018-05-12T02:05:45.037Z,101239.80
2018-05-12T02:08:14.207Z,101241.03
2018-05-12T02:10:43.482Z,101242.33
2018-05-12T02:13:11.830Z,101236.25
2018-05-12T02:15:40.206Z,101247.59
2018-05-12T02:18:08.548Z,101246.36
2018-05-12T02:20:36.925Z,101246.77
2018-05-12T02:23:06.550Z,101245.13
2018-05-12T02:25:35.660Z,101246.80
2018-05-12T02:28:04.048Z,101245.99
2018-05-12T02:30:32.423Z,101249.50
2018-05-12T02:33:00.783Z,101245.69
2018-05-12T02:35:29.169Z,101252.60
2018-05-12T02:37:58.293Z,101247.06
2018-05-12T02:40:26.634Z,101251.31
2018-05-12T02:42:55.730Z,101254.70
2018-05-12T02:45:25.697Z,101256.49
2018-05-12T02:47:54.501Z,101258.30
2018-05-12T02:50:22.952Z,101253.24
2018-05-12T02:52:51.300Z,101255.84
2018-05-12T02:55:20.469Z,101251.61
2018-05-12T02:57:49.624Z,101249.50
2018-05-12T03:00:18.106Z,101249.45
2018-05-12T03:02:46.483Z,101245.08
2018-05-12T03:05:15.479Z,101241.67
2018-05-12T03:07:43.838Z,101241.20
2018-05-12T03:10:12.173Z,101242.00
2018-05-12T03:12:40.523Z,101242.86
2018-05-12T03:15:08.928Z,101240.28
2018-05-12T03:17:37.400Z,101245.50
2018-05-12T03:20:05.732Z,101246.85
2018-05-12T03:22:34.101Z,101251.58
2018-05-12T03:25:03.212Z,101241.66
2018-05-12T03:27:32.630Z,101239.45
2018-05-12T03:30:02.853Z,101247.22
2018-05-12T03:32:31.229Z,101247.73
2018-05-12T03:35:00.398Z,101245.55
2018-05-12T03:37:28.788Z,101244.01
2018-05-12T03:39:57.141Z,101249.20
2018-05-12T03:42:26.319Z,101253.89
2018-05-12T03:44:55.520Z,101244.39
2018-05-12T03:47:23.961Z,101250.13
2018-05-12T03:49:52.329Z,101254.47
2018-05-12T03:52:20.683Z,101253.11
2018-05-12T03:54:49.901Z,101248.85
2018-05-12T03:57:18.266Z,101247.11
2018-05-12T03:59:46.674Z,101250.44
2018-05-12T04:02:15.050Z,101246.63
2018-05-12T04:05:01.166Z,101242.80
2018-05-12T04:07:47.285Z,101243.59
2018-05-12T04:10:34.750Z,101250.89
2018-05-12T04:13:03.162Z,101250.39
2018-05-12T04:15:31.504Z,101251.63
2018-05-12T04:17:59.957Z,101245.11
2018-05-12T04:20:29.148Z,101250.22
2018-05-12T04:22:57.521Z,101248.94
2018-05-12T04:25:25.893Z,101256.70
2018-05-12T04:27:55.064Z,101257.07
2018-05-12T04:30:24.266Z,101254.47
2018-05-12T04:32:54.159Z,101257.50
2018-05-12T04:35:22.665Z,101260.05
2018-05-12T04:37:51.752Z,101264.36
2018-05-12T04:40:20.134Z,101268.67
2018-05-12T04:42:48.497Z,101261.34
2018-05-12T04:45:17.493Z,101263.05
2018-05-12T04:47:45.917Z,101260.59
2018-05-12T04:50:14.343Z,101259.67
2018-05-12T04:52:42.704Z,101263.94
2018-05-12T04:55:11.802Z,101265.60
2018-05-12T04:57:40.925Z,101261.64
2018-05-12T05:00:09.252Z,101258.55
2018-05-12T05:02:38.459Z,101258.12
2018-05-12T05:05:08.645Z,101261.11
2018-05-12T05:07:37.774Z,101258.89
2018-05-12T05:10:06.908Z,101255.92
2018-05-12T05:12:36.273Z,101257.59
2018-05-12T05:15:05.415Z,101256.02
2018-05-12T05:17:33.777Z,101256.94
2018-05-12T05:20:02.118Z,101263.48
2018-05-12T05:22:31.250Z,101257.36
2018-05-12T05:24:59.611Z,101257.68
2018-05-12T05:27:28.762Z,101260.71
2018-05-12T05:29:57.161Z,101261.12
2018-05-12T05:32:25.611Z,101264.52
2018-05-12T05:34:54.055Z,101267.49
2018-05-12T05:37:23.909Z,101268.36
2018-05-12T05:39:52.278Z,101271.37
2018-05-12T05:42:20.633Z,101271.00
2018-05-12T05:44:48.966Z,101268.35
2018-05-12T05:47:17.326Z,101267.97
2018-05-12T05:49:45.661Z,101261.06
2018-05-12T05:52:15.110Z,101262.70
2018-05-12T05:54:43.478Z,101270.38
2018-05-12T05:57:12.121Z,101268.66
2018-05-12T05:59:41.256Z,101274.70
2018-05-12T06:02:09.654Z,101269.88
2018-05-12T06:04:38.057Z,101278.58
2018-05-12T06:07:07.331Z,101274.56
2018-05-12T06:09:36.321Z,101284.06
2018-05-12T06:12:04.689Z,101276.95
2018-05-12T06:14:33.108Z,101274.41
2018-05-12T06:17:01.446Z,101270.08
2018-05-12T06:19:30.641Z,101270.87
2018-05-12T06:21:59.011Z,101272.46
2018-05-12T06:24:27.380Z,101270.51
2018-05-12T06:26:55.730Z,101272.45
2018-05-12T06:29:24.841Z,101269.20
2018-05-12T06:31:54.185Z,101265.59
2018-05-12T06:34:22.591Z,101270.57
2018-05-12T06:36:50.932Z,101263.36
2018-05-12T06:39:19.306Z,101268.70
2018-05-12T06:41:47.690Z,101270.14
2018-05-12T06:44:16.138Z,101265.55
2018-05-12T06:46:44.909Z,101271.36
2018-05-12T06:49:14.163Z,101269.62
2018-05-12T06:51:42.525Z,101270.64
2018-05-12T06:54:10.887Z,101261.52
2018-05-12T06:56:39.261Z,101263.44
2018-05-12T06:59:09.928Z,101258.14
2018-05-12T07:01:38.344Z,101262.06
2018-05-12T07:04:07.492Z,101266.53
2018-05-12T07:06:35.925Z,101263.45
2018-05-12T07:09:04.263Z,101252.48
2018-05-12T07:11:33.316Z,101265.38
2018-05-12T07:14:02.431Z,101265.91
2018-05-12T07:16:30.868Z,101262.33
2018-05-12T07:18:59.222Z,101268.84
2018-05-12T07:21:27.557Z,101264.58
2018-05-12T07:23:55.963Z,101267.71
2018-05-12T07:26:25.015Z,101262.28
2018-05-12T07:28:54.253Z,101268.84
2018-05-12T07:31:22.631Z,101266.55
2018-05-12T07:33:51.833Z,101262.28
2018-05-12T07:36:20.212Z,101269.32
2018-05-12T07:38:48.604Z,101262.97
2018-05-12T07:41:17.033Z,101257.71
2018-05-12T07:43:45.430Z,101255.20
2018-05-12T07:46:14.103Z,101261.30
2018-05-12T07:48:43.248Z,101257.17
2018-05-12T07:51:11.702Z,101253.53
2018-05-12T07:53:40.093Z,101242.99
2018-05-12T07:56:08.542Z,101242.88
2018-05-12T07:58:36.906Z,101242.00
2018-05-12T08:01:06.101Z,101243.41
2018-05-12T08:03:35.241Z,101239.92
2018-05-12T08:06:03.619Z,101240.51
2018-05-12T08:08:31.977Z,101251.35
2018-05-12T08:11:00.343Z,101249.91
2018-05-12T08:13:28.682Z,101250.16
2018-05-12T08:15:57.036Z,101252.05
2018-05-12T08:18:25.367Z,101249.52
2018-05-12T08:20:54.526Z,101253.57
2018-05-12T08:23:23.511Z,101255.56
2018-05-12T08:25:52.699Z,101258.19
2018-05-12T08:28:21.112Z,101252.09
2018-05-12T08:30:49.458Z,101251.33
2018-05-12T08:33:17.866Z,101247.95
2018-05-12T08:35:47.061Z,101257.18
2018-05-12T08:38:15.498Z,101258.66
2018-05-12T08:40:43.856Z,101251.18
2018-05-12T08:43:14.932Z,101253.20
2018-05-12T08:45:43.285Z,101248.53
2018-05-12T08:48:12.108Z,101245.17
2018-05-12T08:50:40.447Z,101236.91
2018-05-12T08:53:09.680Z,101234.30
2018-05-12T08:55:38.122Z,101240.59
2018-05-12T08:58:07.216Z,101228.50
2018-05-12T09:00:36.415Z,101227.69
2018-05-12T09:03:05.624Z,101225.97
2018-05-12T09:05:33.984Z,101229.86
2018-05-12T09:08:03.135Z,101223.97
2018-05-12T09:10:31.498Z,101219.87
2018-05-12T09:12:59.899Z,101219.42
2018-05-12T09:15:28.262Z,101216.63
2018-05-12T09:17:56.685Z,101214.02
2018-05-12T09:20:25.045Z,101218.95
2018-05-12T09:22:53.445Z,101211.84
2018-05-12T09:25:21.849Z,101216.70
2018-05-12T09:27:51.064Z,101211.28
2018-05-12T09:30:19.438Z,101215.89
2018-05-12T09:32:47.912Z,101210.37
2018-05-12T09:35:16.364Z,101212.14
2018-05-12T09:37:46.400Z,101206.23
2018-05-12T09:40:15.527Z,101207.80
2018-05-12T09:42:43.968Z,101211.30
2018-05-12T09:45:13.430Z,101208.67
2018-05-12T09:47:41.968Z,101207.59
2018-05-12T09:50:10.380Z,101206.75
2018-05-12T09:52:39.183Z,101196.51
2018-05-12T09:55:07.607Z,101202.48
2018-05-12T09:57:36.218Z,101204.89
2018-05-12T10:00:04.659Z,101197.05
2018-05-12T10:02:33.011Z,101194.08
2018-05-12T10:05:01.412Z,101194.32
2018-05-12T10:07:31.622Z,101187.92
2018-05-12T10:10:00.022Z,101186.14
2018-05-12T10:12:29.222Z,101184.69
2018-05-12T10:14:58.447Z,101197.27
2018-05-12T10:17:26.813Z,101188.67
2018-05-12T10:19:57.112Z,101184.61
2018-05-12T10:22:26.669Z,101191.36
2018-05-12T10:24:55.061Z,101186.30
2018-05-12T10:27:23.406Z,101177.05
2018-05-12T10:29:51.901Z,101175.24
2018-05-12T10:32:20.316Z,101171.66
2018-05-12T10:34:49.733Z,101169.42
2018-05-12T10:37:18.139Z,101169.73
2018-05-12T10:39:47.676Z,101164.25
2018-05-12T10:42:16.062Z,101164.97
2018-05-12T10:44:44.508Z,101160.33
2018-05-12T10:47:13.659Z,101158.13
2018-05-12T10:49:42.054Z,101149.83
2018-05-12T10:52:10.800Z,101151.08
2018-05-12T10:54:39.290Z,101142.72
2018-05-12T10:57:08.314Z,101142.45
2018-05-12T10:59:39.367Z,101140.36
2018-05-12T11:02:09.535Z,101142.55
2018-05-12T11:04:38.672Z,101133.93
2018-05-12T11:07:07.033Z,101129.83
2018-05-12T11:09:35.477Z,101127.19
2018-05-12T11:12:03.804Z,101116.59
2018-05-12T11:14:32.255Z,101118.19
2018-05-12T11:17:01.282Z,101116.73
2018-05-12T11:19:29.641Z,101117.82
2018-05-12T11:21:58.138Z,101112.81
2018-05-12T11:24:26.458Z,101116.91
2018-05-12T11:26:55.240Z,101117.94
2018-05-12T11:29:24.423Z,101108.31
2018-05-12T11:31:53.615Z,101110.33
2018-05-12T11:34:22.793Z,101103.55
2018-05-12T11:36:51.131Z,101106.97
2018-05-12T11:39:19.477Z,101104.32
2018-05-12T11:41:47.874Z,101108.05
2018-05-12T11:44:16.286Z,101104.20
2018-05-12T11:46:44.766Z,101101.34
2018-05-12T11:49:13.943Z,101102.63
2018-05-12T11:51:43.245Z,101099.39
2018-05-12T11:54:11.722Z,101090.70
2018-05-12T11:56:40.043Z,101098.16
2018-05-12T11:59:08.444Z,101091.27
2018-05-12T12:01:38.110Z,101079.40
2018-05-12T12:04:06.722Z,101074.73
2018-05-12T12:06:35.069Z,101072.43
2018-05-12T12:09:03.864Z,101071.32
2018-05-12T12:11:33.061Z,101067.55
2018-05-12T12:14:01.445Z,101067.30
2018-05-12T12:16:29.790Z,101071.13
2018-05-12T12:18:58.162Z,101064.11
2018-05-12T12:21:26.708Z,101063.61
2018-05-12T12:23:55.662Z,101061.36
2018-05-12T12:26:24.154Z,101059.77
2018-05-12T12:28:52.554Z,101058.69
2018-05-12T12:31:20.952Z,101061.45
2018-05-12T12:33:50.092Z,101056.09
2018-05-12T12:36:18.924Z,101056.64
2018-05-12T12:38:47.383Z,101057.87
2018-05-12T12:41:15.775Z,101048.56
2018-05-12T12:43:44.190Z,101044.13
2018-05-12T12:46:13.994Z,101052.38
2018-05-12T12:48:43.133Z,101055.89
2018-05-12T12:51:12.403Z,101044.56
2018-05-12T12:53:40.802Z,101053.52
2018-05-12T12:56:09.213Z,101049.50
2018-05-12T12:58:37.567Z,101044.16
2018-05-12T13:01:06.323Z,101043.05
2018-05-12T13:03:35.490Z,101041.17
2018-05-12T13:06:04.640Z,101041.95
2018-05-12T13:08:33.000Z,101043.06
2018-05-12T13:11:01.406Z,101041.87
2018-05-12T13:13:29.769Z,101038.80
2018-05-12T13:15:58.269Z,101041.13
2018-05-12T13:18:27.600Z,101037.94
2018-05-12T13:20:55.945Z,101034.42
2018-05-12T13:23:24.328Z,101019.45
2018-05-12T13:25:53.638Z,101020.14
2018-05-12T13:28:22.421Z,101013.35
2018-05-12T13:30:50.780Z,101019.98
2018-05-12T13:33:19.942Z,101015.65
2018-05-12T13:35:49.299Z,101019.79
2018-05-12T13:38:17.657Z,101014.70
2018-05-12T13:40:46.100Z,101009.44
2018-05-12T13:43:16.042Z,101006.98
2018-05-12T13:45:44.517Z,101004.26
2018-05-12T13:48:14.351Z,101000.73
2018-05-12T13:50:42.737Z,101006.07
2018-05-12T13:53:11.905Z,101001.83
2018-05-12T13:55:41.201Z,100998.09
2018-05-12T13:58:10.889Z,100997.14
2018-05-12T14:00:39.751Z,100993.89
2018-05-12T14:03:08.152Z,100994.45
2018-05-12T14:05:36.567Z,100988.77
2018-05-12T14:08:05.795Z,100987.48
2018-05-12T14:10:34.348Z,100988.59
2018-05-12T14:13:02.698Z,100985.60
2018-05-12T14:15:31.713Z,100972.75
2018-05-12T14:18:01.606Z,100975.47
2018-05-12T14:20:29.956Z,100977.23
2018-05-12T14:22:58.417Z,100972.69
2018-05-12T14:25:27.705Z,100974.47
2018-05-12T14:27:56.438Z,100971.03
2018-05-12T14:30:24.769Z,100976.58
2018-05-12T14:32:53.917Z,100972.58
2018-05-12T14:35:22.896Z,100968.12
2018-05-12T14:37:51.245Z,100964.72
2018-05-12T14:40:19.687Z,100959.97
2018-05-12T14:42:48.878Z,100966.95
2018-05-12T14:45:17.334Z,100952.13
2018-05-12T14:47:45.719Z,100956.25
2018-05-12T14:50:14.214Z,100954.70
2018-05-12T14:52:43.396Z,100956.81
2018-05-12T14:55:11.874Z,100952.20
2018-05-12T14:57:41.107Z,100948.59
2018-05-12T15:00:11.087Z,100946.81
2018-05-12T15:02:39.452Z,100942.63
2018-05-12T15:05:07.817Z,100939.61
2018-05-12T15:07:36.185Z,100935.34
2018-05-12T15:10:05.210Z,100928.94
2018-05-12T15:12:33.612Z,100931.24
2018-05-12T15:15:01.982Z,100926.40
2018-05-12T15:17:30.542Z,100922.77
2018-05-12T15:19:58.952Z,100927.44
2018-05-12T15:22:27.337Z,100919.38
2018-05-12T15:24:56.493Z,100921.48
2018-05-12T15:27:26.582Z,100915.97
2018-05-12T15:29:56.133Z,100911.94
2018-05-12T15:32:24.638Z,100913.00
2018-05-12T15:34:54.743Z,100911.05
2018-05-12T15:37:23.113Z,100911.77
2018-05-12T15:39:51.506Z,100901.85
2018-05-12T15:42:19.841Z,100903.39
2018-05-12T15:44:48.193Z,100904.01
2018-05-12T15:47:17.336Z,100901.77
2018-05-12T15:49:45.692Z,100902.46
2018-05-12T15:52:14.075Z,100904.20
2018-05-12T15:54:43.746Z,100905.00
2018-05-12T15:57:12.077Z,100895.02
2018-05-12T15:59:40.436Z,100894.64
2018-05-12T16:02:09.515Z,100891.27
2018-05-12T16:04:38.645Z,100889.33
2018-05-12T16:07:06.990Z,100881.03
2018-05-12T16:09:36.197Z,100890.05
2018-05-12T16:12:05.698Z,100884.30
2018-05-12T16:14:34.090Z,100878.93
2018-05-12T16:17:02.570Z,100875.77
2018-05-12T16:19:30.936Z,100874.44
2018-05-12T16:21:59.302Z,100872.20
2018-05-12T16:24:28.445Z,100878.08
2018-05-12T16:26:56.884Z,100871.72
2018-05-12T16:29:26.824Z,100873.96
2018-05-12T16:31:56.261Z,100871.83
2018-05-12T16:34:26.481Z,100873.54
2018-05-12T16:36:54.848Z,100876.27
2018-05-12T16:39:23.467Z,100872.32
2018-05-12T16:41:52.672Z,100866.09
2018-05-12T16:44:21.815Z,100872.45
2018-05-12T16:46:50.231Z,100869.72
2018-05-12T16:49:18.562Z,100872.43
2018-05-12T16:51:46.927Z,100867.63
2018-05-12T16:54:15.275Z,100869.05
2018-05-12T16:56:44.055Z,100860.94
2018-05-12T16:59:12.460Z,100863.96
2018-05-12T17:01:41.289Z,100869.89
2018-05-12T17:04:09.721Z,100867.31
2018-05-12T17:06:38.977Z,100871.42
2018-05-12T17:09:07.446Z,100871.41
2018-05-12T17:11:35.808Z,100863.88
2018-05-12T17:14:05.448Z,100870.14
2018-05-12T17:16:33.944Z,100861.77
2018-05-12T17:19:02.334Z,100867.05
2018-05-12T17:21:31.650Z,100856.02
2018-05-12T17:24:00.799Z,100852.14
2018-05-12T17:26:29.514Z,100855.29
2018-05-12T17:28:57.921Z,100856.12
2018-05-12T17:31:27.689Z,100856.65
2018-05-12T17:33:56.189Z,100854.50
2018-05-12T17:36:24.549Z,100854.63
2018-05-12T17:38:52.903Z,100849.79
2018-05-12T17:41:21.339Z,100848.02
2018-05-12T17:43:50.446Z,100845.17
2018-05-12T17:46:19.600Z,100846.45
2018-05-12T17:48:48.046Z,100847.17
2018-05-12T17:51:16.606Z,100841.47
2018-05-12T17:53:45.739Z,100832.95
2018-05-12T17:56:14.779Z,100838.30
2018-05-12T17:58:43.124Z,100840.98
2018-05-12T18:01:11.500Z,100841.08
2018-05-12T18:03:39.929Z,100843.34
2018-05-12T18:06:09.081Z,100838.81
2018-05-12T18:08:37.540Z,100835.38
2018-05-12T18:11:05.850Z,100832.23
2018-05-12T18:13:34.229Z,100826.84
2018-05-12T18:16:02.628Z,100830.99
2018-05-12T18:18:31.339Z,100828.45
2018-05-12T18:21:01.278Z,100827.61
2018-05-12T18:23:29.987Z,100830.05
2018-05-12T18:25:58.361Z,100829.36
2018-05-12T18:28:26.708Z,100833.27
2018-05-12T18:30:55.059Z,100830.09
2018-05-12T18:33:24.210Z,100837.77
2018-05-12T18:35:52.557Z,100838.01
2018-05-12T18:38:20.957Z,100837.52
2018-05-12T18:40:49.310Z,100840.80
2018-05-12T18:43:19.425Z,100840.66
2018-05-12T18:45:48.556Z,100842.59
2018-05-12T18:48:16.921Z,100841.89
2018-05-12T18:50:45.396Z,100850.43
2018-05-12T18:53:13.663Z,100852.11
2018-05-12T18:55:42.837Z,100846.77
2018-05-12T18:58:11.961Z,100849.12
2018-05-12T19:00:40.311Z,100856.89
2018-05-12T19:03:09.473Z,100848.50
2018-05-12T19:05:37.938Z,100855.63
2018-05-12T19:08:07.238Z,100856.08
2018-05-12T19:10:35.614Z,100856.24
2018-05-12T19:13:03.951Z,100860.33
2018-05-12T19:15:33.384Z,100855.27
2018-05-12T19:18:01.734Z,100854.12
2018-05-12T19:20:30.873Z,100854.66
2018-05-12T19:22:59.281Z,100852.61
2018-05-12T19:25:27.630Z,100852.34
2018-05-12T19:27:56.028Z,100856.39
2018-05-12T19:30:24.408Z,100853.84
2018-05-12T19:32:52.901Z,100854.85
2018-05-12T19:35:21.269Z,100857.09
2018-05-12T19:37:49.923Z,100857.59
2018-05-12T19:40:18.341Z,100863.83
2018-05-12T19:42:46.758Z,100854.27
2018-05-12T19:45:16.322Z,100851.52
2018-05-12T19:47:44.733Z,100848.95
2018-05-12T19:50:13.844Z,100852.66
2018-05-12T19:52:43.023Z,100852.47
2018-05-12T19:55:11.471Z,100852.89
2018-05-12T19:57:40.665Z,100850.95
2018-05-12T20:00:09.044Z,100851.05
2018-05-12T20:02:37.442Z,100848.86
2018-05-12T20:05:05.799Z,100850.58
2018-05-12T20:07:34.176Z,100852.51
2018-05-12T20:10:03.434Z,100858.22
2018-05-12T20:12:32.602Z,100857.92
2018-05-12T20:15:00.990Z,100854.16
2018-05-12T20:17:29.328Z,100858.89
2018-05-12T20:19:57.678Z,100856.92
2018-05-12T20:22:26.064Z,100864.05
2018-05-12T20:24:55.734Z,100866.68
2018-05-12T20:27:24.488Z,100864.91
2018-05-12T20:29:53.743Z,100864.05
2018-05-12T20:32:22.121Z,100862.89
2018-05-12T20:34:51.255Z,100866.88
2018-05-12T20:37:19.620Z,100869.14
2018-05-12T20:39:48.563Z,100868.73
2018-05-12T20:42:17.715Z,100865.33
2018-05-12T20:44:46.073Z,100861.53
2018-05-12T20:47:14.555Z,100866.80
2018-05-12T20:49:43.024Z,100864.31
2018-05-12T20:52:11.420Z,100862.20
2018-05-12T20:54:39.778Z,100859.59
2018-05-12T20:57:08.909Z,100860.74
2018-05-12T20:59:37.332Z,100862.02
2018-05-12T21:02:06.501Z,100856.83
2018-05-12T21:04:34.976Z,100856.91
2018-05-12T21:07:03.684Z,100854.80
2018-05-12T21:09:32.439Z,100844.59
2018-05-12T21:12:01.024Z,100844.66
2018-05-12T21:14:29.364Z,100843.92
2018-05-12T21:16:58.514Z,100837.63
2018-05-12T21:19:26.913Z,100840.23
2018-05-12T21:21:55.267Z,100839.93
2018-05-12T21:24:23.653Z,100836.52
2018-05-12T21:26:52.090Z,100836.61
2018-05-12T21:29:20.565Z,100837.56
2018-05-12T21:31:48.848Z,100834.17
2018-05-12T21:34:17.228Z,100835.55
2018-05-12T21:36:45.651Z,100834.81
2018-05-12T21:39:14.010Z,100837.02
2018-05-12T21:41:42.343Z,100840.41
2018-05-12T21:44:11.561Z,100840.41
2018-05-12T21:46:39.994Z,100840.53
2018-05-12T21:49:08.370Z,100841.38
2018-05-12T21:51:36.790Z,100836.64
2018-05-12T21:54:05.925Z,100835.53
2018-05-12T21:56:34.295Z,100838.26
2018-05-12T21:59:02.708Z,100842.95
2018-05-12T22:01:31.110Z,100836.00
2018-05-12T22:04:00.338Z,100835.08
2018-05-12T22:06:29.664Z,100830.44
2018-05-12T22:08:58.044Z,100829.52
2018-05-12T22:11:26.420Z,100829.36
2018-05-12T22:13:54.767Z,100828.51
2018-05-12T22:16:23.896Z,100829.75
2018-05-12T22:18:52.272Z,100823.66
2018-05-12T22:21:20.617Z,100820.62
2018-05-12T22:23:49.750Z,100815.83
2018-05-12T22:26:18.120Z,100815.78
2018-05-12T22:28:46.499Z,100822.30
2018-05-12T22:31:14.963Z,100824.70
2018-05-12T22:33:43.374Z,100823.01
2018-05-12T22:36:11.747Z,100831.00
2018-05-12T22:38:40.162Z,100825.86
2018-05-12T22:41:08.515Z,100829.91
2018-05-12T22:43:36.885Z,100827.18
2018-05-12T22:46:05.280Z,100822.61
2018-05-12T22:48:33.636Z,100819.03
2018-05-12T22:51:02.022Z,100816.81
2018-05-12T22:53:30.414Z,100814.72
2018-05-12T22:55:58.763Z,100809.44
2018-05-12T22:58:27.128Z,100800.77
2018-05-12T23:00:55.512Z,100798.98
2018-05-12T23:03:23.890Z,100796.85
2018-05-12T23:05:52.300Z,100795.53
2018-05-12T23:08:20.648Z,100795.62
2018-05-12T23:10:49.788Z,100791.64
2018-05-12T23:13:18.433Z,100792.66
2018-05-12T23:15:46.774Z,100790.83
2018-05-12T23:18:15.156Z,100784.86
2018-05-12T23:20:44.258Z,100787.59
2018-05-12T23:23:13.399Z,100789.41
2018-05-12T23:25:41.731Z,100792.19
2018-05-12T23:28:10.889Z,100787.83
2018-05-12T23:30:40.199Z,100793.16
2018-05-12T23:33:08.602Z,100794.05
2018-05-12T23:35:37.705Z,100795.89
2018-05-12T23:38:06.836Z,100788.12
2018-05-12T23:40:35.914Z,100793.48
2018-05-12T23:43:04.282Z,100784.30
2018-05-12T23:45:33.461Z,100794.79
2018-05-12T23:48:01.883Z,100788.76
2018-05-12T23:50:30.237Z,100784.53
2018-05-12T23:53:00.053Z,100782.42
2018-05-12T23:55:29.256Z,100787.28
2018-05-12T23:57:57.613Z,100790.96
